Latest Weather Observations for Sheffield

IDT60801

Issued at 11:32 am EST Sunday 31 July 2016 (issued every 30 minutes, with the page automatically refreshed every 10 minutes)

About weather observations | Map of weather stations | Latest weather observations for TAS | Other Formats
Station Details ID: 091291 Name: SHEFFIELD SCHOOL FARM Lat: -41.39 Lon: 146.32 Height: 294.2 m
Data from the previous 72 hours. | See also: Recent months at Sheffield
Date/Time
EST
Temp
°C
App
Temp
°C
Dew
Point
°C
Rel
Hum
%
Delta-T
°C
Wind Press
QNH
hPa
Press
MSL
hPa
Rain since
9am
mm
Dir  Spd
km/h
Gust
km/h
Spd
kts
Gust
kts
31/11:30am 10.3 3.7 4.0 65 2.8 WSW 28 43 15 23 1009.6 1010.2 0.0
31/11:00am 9.7 2.3 3.9 67 2.6 W 32 44 17 24 1009.6 1010.2 0.0
31/10:30am 9.4 1.4 3.6 67 2.6 WSW 35 52 19 28 1009.5 1010.1 0.0
31/10:00am 9.3 3.1 4.1 70 2.3 WSW 26 39 14 21 1009.3 1009.8 0.0
31/09:30am 8.9 4.3 3.7 70 2.3 W 17 26 9 14 1009.4 1009.9 0.0
31/09:00am 8.0 5.3 3.8 75 1.8 NW 7 15 4 8 1009.3 1009.8 14.6
31/08:30am 7.4 4.7 3.8 78 1.6 WNW 7 11 4 6 1009.0 1009.5 14.6
31/08:00am 6.3 2.8 3.5 82 1.2 WNW 11 19 6 10 1008.2 1008.8 14.6
31/07:30am 6.4 1.7 3.4 81 1.3 NW 17 20 9 11 1007.7 1008.3 14.6
31/07:00am 6.5 2.3 3.8 83 1.2 NW 15 24 8 13 1007.4 1008.0 14.6
31/06:30am 6.6 2.8 3.8 82 1.2 WNW 13 19 7 10 1006.7 1007.3 14.6
31/06:00am 6.7 2.5 3.7 81 1.3 WNW 15 20 8 11 1006.3 1006.8 14.6
31/05:30am 6.8 3.0 3.8 81 1.3 WNW 13 20 7 11 1006.1 1006.6 14.6
31/05:00am 6.9 2.1 2.8 75 1.7 W 17 24 9 13 1005.6 1006.1 14.2
31/04:30am 7.8 3.2 3.5 74 1.9 WNW 17 20 9 11 1005.6 1006.1 14.2
31/04:00am 7.8 4.4 4.0 77 1.7 WNW 11 15 6 8 1005.3 1005.8 14.2
31/03:30am 8.5 4.5 4.7 77 1.7 WNW 15 22 8 12 1005.0 1005.5 14.2
31/03:00am 8.7 4.8 5.3 79 1.6 WNW 15 20 8 11 1004.9 1005.4 14.2
31/02:30am 9.1 4.7 6.7 85 1.1 NW 19 26 10 14 1004.7 1005.3 14.2
31/02:00am 9.5 3.8 6.9 84 1.2 NW 26 33 14 18 1004.5 1005.1 14.2
31/01:30am 9.4 1.0 7.2 86 1.1 NW 41 67 22 36 1004.5 1005.1 14.0
31/01:21am 9.7 3.8 9.1 96 0.3 NW 30 61 16 33 1004.6 1005.2 13.4
31/01:00am 9.8 3.6 9.3 97 0.3 NW 32 48 17 26 1004.6 1005.2 11.0
31/12:30am 9.6 3.3 9.1 97 0.3 NW 32 52 17 28 1005.0 1005.5 9.2
31/12:07am 9.5 4.0 9.0 97 0.2 NNW 28 46 15 25 1005.7 1006.2 8.4
31/12:00am 9.5 3.6 8.9 96 0.3 NW 30 46 16 25 1005.8 1006.3 8.2
 
Date/Time
EST
Temp
°C
App
Temp
°C
Dew
Point
°C
Rel
Hum
%
Delta-T
°C
Wind Press
QNH
hPa
Press
MSL
hPa
Rain since
9am
mm
Dir  Spd
km/h
Gust
km/h
Spd
kts
Gust
kts
30/11:30pm 9.5 3.5 8.7 95 0.4 NNW 30 41 16 22 1006.4 1006.9 5.6
30/11:19pm 9.5 3.9 8.9 96 0.3 NNW 28 56 15 30 1006.5 1007.0 5.6
30/11:00pm 9.4 3.8 8.6 95 0.4 NNW 28 39 15 21 1006.9 1007.5 5.4
30/10:47pm 9.5 3.6 8.9 96 0.3 NNW 30 52 16 28 1007.0 1007.6 5.2
30/10:30pm 9.3 4.9 8.8 97 0.2 NNW 22 39 12 21 1007.7 1008.3 4.8
30/10:00pm 9.3 3.4 9.0 98 0.2 NNW 30 41 16 22 1008.0 1008.6 4.0
30/09:42pm 8.9 3.3 8.8 99 0.0 NW 28 41 15 22 1008.2 1008.8 3.8
30/09:30pm 7.8 5.1 7.5 98 0.1 NW 11 20 6 11 1008.6 1009.1 3.6
30/09:00pm 7.0 4.9 6.7 98 0.1 NW 7 11 4 6 1009.1 1009.6 1.8
30/08:30pm 6.4 4.7 6.0 97 0.2 W 4 6 2 3 1009.6 1010.2 1.4
30/08:00pm 6.0 5.0 5.6 97 0.2 CALM 0 0 0 0 1009.9 1010.5 0.8
30/07:30pm 5.9 4.1 5.3 96 0.3 WSW 4 4 2 2 1010.5 1011.1 0.6
30/07:00pm 5.8 3.6 5.2 96 0.3 SE 6 7 3 4 1010.5 1011.1 0.6
30/06:30pm 5.8 4.3 5.1 95 0.3 S 2 4 1 2 1011.3 1011.9 0.6
30/06:00pm 5.8 4.3 4.9 94 0.4 ESE 2 4 1 2 1011.5 1012.1 0.4
30/05:30pm 6.0 4.2 5.3 95 0.3 SE 4 6 2 3 1011.7 1012.3 0.4
30/05:00pm 6.1 5.0 5.2 94 0.4 CALM 0 0 0 0 1012.1 1012.6 0.4
30/04:30pm 6.3 4.8 4.9 91 0.6 SSW 2 6 1 3 1012.8 1013.4 0.2
30/04:00pm 6.6 5.4 4.6 87 0.9 CALM 0 4 0 2 1013.0 1013.6 0.0
30/03:30pm 6.9 5.3 4.7 86 1.0 NW 2 4 1 2 1013.4 1014.0 0.0
30/03:00pm 7.4 4.4 4.2 80 1.4 NW 9 15 5 8 1014.0 1014.6 0.0
30/02:30pm 8.0 4.9 3.7 74 1.9 NNW 9 11 5 6 1014.0 1014.6 0.0
30/02:00pm 8.1 5.3 3.0 70 2.2 NNW 7 13 4 7 1014.4 1015.0 0.0
30/01:30pm 7.9 3.9 2.6 69 2.3 NNW 13 20 7 11 1014.9 1015.5 0.0
30/01:00pm 8.5 4.5 2.9 68 2.4 NNW 13 20 7 11 1015.3 1016.0 0.0
30/12:30pm 8.5 4.7 1.9 63 2.8 NNW 11 19 6 10 1015.9 1016.5 0.0
30/12:00pm 8.1 5.8 0.3 58 3.1 NNW 2 7 1 4 1016.6 1017.2 0.0
30/11:30am 7.8 5.1 0.3 59 3.0 NW 4 7 2 4 1017.2 1017.8 0.0
30/11:00am 7.1 4.1 0.5 63 2.6 NW 6 9 3 5 1017.7 1018.3 0.0
30/10:30am 6.0 3.4 1.0 70 2.0 NW 4 9 2 5 1017.7 1018.3 0.0
30/10:00am 4.5 1.5 1.0 78 1.4 NW 6 7 3 4 1017.9 1018.5 0.0
30/09:30am 3.6 0.9 0.5 80 1.2 NW 4 6 2 3 1017.7 1018.3 0.0
30/09:00am 2.4 -0.4 -0.2 83 1.0 NNW 4 6 2 3 1018.0 1018.7 0.0
30/08:30am 1.4 -1.5 -1.3 82 1.0 NW 4 6 2 3 1018.1 1018.8 0.0
30/08:00am 1.4 -0.7 -0.5 87 0.7 CALM 0 0 0 0 1018.0 1018.7 0.0
30/07:30am 0.2 -2.0 -1.4 89 0.6 CALM 0 0 0 0 1017.9 1018.5 0.0
30/07:00am 0.1 -2.6 -2.3 84 0.8 S 2 6 1 3 1017.8 1018.4 0.0
30/06:30am 1.1 -2.1 -0.8 87 0.7 W 6 6 3 3 1018.1 1018.8 0.0
30/06:00am 0.8 -1.3 -1.0 88 0.6 CALM 0 2 0 1 1017.7 1018.3 0.0
30/05:30am 1.1 -1.8 -1.3 84 0.9 ESE 4 6 2 3 1017.4 1018.0 0.0
30/05:00am 2.4 0.3 -0.5 81 1.1 CALM 0 0 0 0 1017.6 1018.2 0.0
30/04:30am 2.6 0.5 -0.7 79 1.2 CALM 0 2 0 1 1017.5 1018.1 0.0
30/04:00am 2.4 -1.0 -0.7 80 1.1 NNW 7 11 4 6 1017.6 1018.2 0.0
30/03:30am 2.7 -1.1 -1.1 76 1.4 N 9 11 5 6 1017.4 1018.0 0.0
30/03:00am 2.4 -1.8 -1.0 78 1.2 NNW 11 15 6 8 1017.1 1017.7 0.0
30/02:30am 3.9 0.5 -0.9 71 1.8 N 7 11 4 6 1016.7 1017.3 0.0
30/02:00am 4.5 0.3 -0.7 69 2.0 N 11 17 6 9 1016.6 1017.2 0.0
30/01:30am 3.5 0.5 -1.8 68 1.9 WSW 4 11 2 6 1016.3 1016.9 0.0
30/01:00am 5.5 1.7 -1.0 63 2.5 WSW 9 20 5 11 1016.4 1017.0 0.0
30/12:30am 5.5 0.6 -0.8 64 2.4 SW 15 24 8 13 1016.1 1016.7 0.0
30/12:00am 5.5 -0.2 -0.5 65 2.3 WSW 19 28 10 15 1016.2 1016.8 0.0
 
Date/Time
EST
Temp
°C
App
Temp
°C
Dew
Point
°C
Rel
Hum
%
Delta-T
°C
Wind Press
QNH
hPa
Press
MSL
hPa
Rain since
9am
mm
Dir  Spd
km/h
Gust
km/h
Spd
kts
Gust
kts
29/11:30pm 5.5 -0.7 -0.3 66 2.2 WSW 22 43 12 23 1016.3 1016.9 0.0
29/11:00pm 5.2 -0.4 0.0 69 2.0 WSW 19 24 10 13 1016.1 1016.7 0.0
29/10:30pm 5.2 1.4 -0.8 65 2.3 WSW 9 13 5 7 1016.1 1016.7 0.0
29/10:00pm 6.7 0.9 -0.1 62 2.7 SW 20 32 11 17 1015.7 1016.3 0.0
29/09:30pm 6.6 2.0 -0.8 59 2.9 SW 13 19 7 10 1015.2 1015.9 0.0
29/09:00pm 6.2 3.1 -0.1 64 2.5 WNW 6 9 3 5 1014.5 1015.1 0.0
29/08:30pm 6.7 2.6 -0.1 62 2.7 WSW 11 13 6 7 1013.7 1014.3 0.0
29/08:00pm 8.0 3.1 -0.2 56 3.3 SW 15 22 8 12 1013.3 1013.9 0.0
29/07:30pm 8.1 2.0 0.1 57 3.2 WSW 22 39 12 21 1012.4 1013.0 0.0
29/07:00pm 9.0 0.9 1.2 58 3.3 WSW 33 61 18 33 1011.3 1011.9 0.0
29/06:30pm 9.0 1.0 1.9 61 3.0 WSW 33 54 18 29 1010.7 1011.3 0.0
29/06:00pm 9.3 1.2 3.1 65 2.7 WSW 35 61 19 33 1010.1 1010.7 0.0
29/05:31pm 9.5 1.2 4.1 69 2.4 WSW 37 61 20 33 1009.2 1009.7 0.0
29/05:30pm 9.4 1.1 4.0 69 2.4 WSW 37 54 20 29 1009.2 1009.7 0.0
29/05:00pm 9.3 0.0 5.1 75 1.9 W 43 65 23 35 1009.0 1009.5 0.0
29/04:38pm 10.4 1.8 4.8 68 2.6 W 39 67 21 36 1008.6 1009.1 0.0
29/04:30pm 10.4 5.1 4.8 68 2.6 W 22 48 12 26 1008.8 1009.3 0.0
29/04:00pm 10.3 5.5 5.7 73 2.2 WNW 20 33 11 18 1008.7 1009.2 0.0
29/03:30pm 10.7 6.0 5.9 72 2.3 W 20 37 11 20 1008.5 1009.0 0.0
29/03:00pm 10.4 5.0 6.4 76 1.9 W 24 41 13 22 1008.6 1009.1 0.0
29/02:30pm 11.6 4.4 5.0 64 3.1 W 32 52 17 28 1008.1 1008.7 0.0
29/02:00pm 11.2 3.9 4.7 64 3.0 W 32 56 17 30 1007.8 1008.4 0.0
29/01:48pm 11.7 4.9 4.9 63 3.2 W 30 48 16 26 1007.9 1008.5 0.0
29/01:30pm 12.1 5.7 5.0 62 3.3 W 28 46 15 25 1008.2 1008.8 0.0
29/01:00pm 12.2 5.5 5.4 63 3.2 W 30 46 16 25 1008.5 1009.0 0.0
29/12:51pm 12.0 5.6 5.2 63 3.2 W 28 46 15 25 1008.5 1009.0 0.0
29/12:30pm 11.4 4.5 4.8 64 3.1 W 30 44 16 24 1008.7 1009.2 0.0
29/12:17pm 11.6 4.3 4.3 61 3.3 W 32 50 17 27 1009.0 1009.5 0.0
29/12:00pm 11.6 5.1 4.8 63 3.2 W 28 43 15 23 1009.1 1009.6 0.0
29/11:30am 11.2 5.0 6.1 71 2.4 WNW 28 52 15 28 1009.4 1009.9 0.0
29/11:28am 10.9 4.6 5.7 70 2.4 WNW 28 52 15 28 1009.3 1009.8 0.0
29/11:00am 11.0 4.2 5.3 68 2.7 WNW 30 43 16 23 1009.6 1010.2 0.0
29/10:30am 11.5 5.9 5.6 67 2.8 W 24 33 13 18 1009.6 1010.2 0.0
29/10:00am 10.5 3.3 5.7 72 2.3 WNW 33 48 18 26 1009.6 1010.2 0.0
29/09:45am 10.3 3.3 5.9 74 2.1 WNW 32 52 17 28 1009.7 1010.3 0.0
29/09:30am 9.8 2.2 5.6 75 2.0 WNW 35 44 19 24 1009.8 1010.4 0.0
29/09:00am 9.2 2.4 5.2 76 1.8 NW 30 43 16 23 1009.9 1010.5 0.0
29/08:30am 8.5 2.4 4.7 77 1.7 WNW 26 37 14 20 1010.0 1010.6 0.0
29/08:00am 8.5 2.3 4.5 76 1.8 WNW 26 35 14 19 1010.1 1010.7 0.0
29/07:30am 8.2 1.7 4.6 78 1.6 WNW 28 37 15 20 1010.3 1010.9 0.0
29/07:00am 8.3 1.4 4.5 77 1.7 WNW 30 39 16 21 1010.3 1010.9 0.0
29/06:30am 8.2 2.4 4.6 78 1.6 WNW 24 33 13 18 1010.1 1010.7 0.0
29/06:00am 8.4 1.1 4.4 76 1.8 WNW 32 41 17 22 1010.1 1010.7 0.0
29/05:30am 8.4 1.2 4.8 78 1.6 WNW 32 44 17 24 1010.1 1010.7 0.0
29/05:00am 8.2 2.1 5.0 80 1.4 NW 26 33 14 18 1010.3 1010.9 0.0
29/04:30am 7.6 2.7 5.1 84 1.1 WNW 20 24 11 13 1010.5 1011.1 0.0
29/04:00am 7.1 2.7 4.9 86 1.0 WNW 17 24 9 13 1010.7 1011.3 0.0
29/03:30am 7.3 3.0 5.3 87 0.9 NW 17 22 9 12 1010.8 1011.4 0.0
29/03:00am 7.3 2.0 5.1 86 1.0 NW 22 30 12 16 1011.1 1011.7 0.0
29/02:30am 7.6 1.9 4.9 83 1.2 NW 24 33 13 18 1011.3 1011.9 0.0
29/02:00am 7.8 2.0 4.4 79 1.5 NW 24 32 13 17 1011.4 1012.0 0.0
29/01:30am 7.6 2.7 5.1 84 1.1 NW 20 32 11 17 1011.8 1012.4 0.0
29/01:00am 6.6 2.8 5.6 93 0.5 NNW 15 24 8 13 1012.1 1012.6 0.0
29/12:30am 6.7 2.5 5.5 92 0.5 NNW 17 22 9 12 1012.5 1013.1 0.0
29/12:00am 6.8 2.9 5.3 90 0.7 NNW 15 20 8 11 1012.8 1013.4 0.0
 
Date/Time
EST
Temp
°C
App
Temp
°C
Dew
Point
°C
Rel
Hum
%
Delta-T
°C
Wind Press
QNH
hPa
Press
MSL
hPa
Rain since
9am
mm
Dir  Spd
km/h
Gust
km/h
Spd
kts
Gust
kts
28/11:30pm 6.9 2.9 4.9 87 0.9 NNW 15 20 8 11 1013.0 1013.6 0.0
28/11:00pm 7.0 2.9 4.3 83 1.2 NNW 15 19 8 10 1013.1 1013.7 0.0
28/10:30pm 7.2 2.7 4.2 81 1.3 NNW 17 24 9 13 1013.3 1013.9 0.0
28/10:00pm 7.5 4.0 3.6 76 1.7 NW 11 20 6 11 1013.3 1013.9 0.0
28/09:30pm 7.3 4.4 2.8 73 1.9 N 7 11 4 6 1013.7 1014.3 0.0
28/09:00pm 8.0 3.1 2.3 67 2.4 W 17 35 9 19 1013.7 1014.3 0.0
28/08:30pm 7.9 3.3 3.6 74 1.9 W 17 26 9 14 1013.8 1014.4 0.0
28/08:00pm 7.7 4.3 3.9 77 1.7 NW 11 19 6 10 1013.7 1014.3 0.0
28/07:30pm 8.1 4.4 4.3 77 1.7 NNW 13 22 7 12 1013.6 1014.2 0.0
28/07:00pm 7.6 3.5 4.2 79 1.5 NW 15 26 8 14 1013.5 1014.1 0.0
28/06:30pm 8.6 4.1 4.0 73 2.0 NW 17 22 9 12 1013.2 1013.8 0.0
28/06:00pm 8.6 3.3 3.0 68 2.4 WNW 20 46 11 25 1013.0 1013.6 0.0
28/05:33pm 9.2 1.0 2.8 64 2.8 WSW 35 56 19 30 1012.3 1012.8 0.0
28/05:30pm 9.0 0.8 2.8 65 2.7 WSW 35 48 19 26 1012.6 1013.2 0.0
28/05:00pm 9.2 2.7 2.5 63 2.9 WSW 26 37 14 20 1012.5 1013.1 0.0
28/04:47pm 9.3 2.5 2.9 64 2.8 W 28 46 15 25 1012.5 1013.1 0.0
28/04:30pm 9.7 1.9 3.0 63 2.9 W 33 50 18 27 1012.3 1012.8 0.0
28/04:13pm 10.0 2.5 3.7 65 2.8 WSW 32 52 17 28 1012.2 1012.7 0.0
28/04:00pm 10.1 3.6 4.5 68 2.5 WSW 28 46 15 25 1011.8 1012.4 0.0
28/03:30pm 10.2 4.2 5.4 72 2.2 W 26 35 14 19 1011.3 1011.9 0.0
28/03:00pm 11.1 6.1 4.8 65 2.9 W 20 33 11 18 1010.9 1011.5 0.0
28/02:30pm 12.1 6.3 4.6 60 3.5 W 24 35 13 19 1010.8 1011.4 0.0
28/02:00pm 11.5 4.0 3.5 58 3.6 W 32 50 17 27 1010.6 1011.2 0.0
28/01:30pm 11.7 5.9 4.4 61 3.4 W 24 39 13 21 1010.9 1011.5 0.0
28/01:00pm 12.2 6.5 4.9 61 3.4 WNW 24 41 13 22 1010.7 1011.3 0.0
28/12:30pm 11.5 3.5 4.0 60 3.4 W 35 59 19 32 1010.8 1011.4 0.0
28/12:03pm 12.0 4.7 5.4 64 3.1 W 33 54 18 29 1010.7 1011.3 0.0
28/12:00pm 11.7 3.9 4.9 63 3.2 W 35 54 19 29 1010.6 1011.2 0.0

Other Formats:

Comma delimited format used in spreadsheet applications
http://www.bom.gov.au/fwo/IDT60801/IDT60801.94955.axf

JavaScript Object Notation format (JSON) in row-major order
http://www.bom.gov.au/fwo/IDT60801/IDT60801.94955.json